Prairie Center, Illinois
Current Conditions -  °F | °C
As of 12:55 PM on Thursday 30 Oct 2014 (Local Time) from KVYS Reporting Station
Broken Clouds Broken Clouds  
Wind Chill: 46°   Ceiling: 8000
Heat Index: 47°   Visibility: 10mi
Dew Point: 37°   Wind: 5mph
Humidity: 66%   Direction: 230°SW
Pressure: 30.11"   Gusts: NA
Location:  41.4349°N, 88.8687°W
Report Text: KVYS 301755Z AUTO 23004KT 10SM BKN080 09/03 A3011 RMK AO2 T00860026 10086 20007
Loading
Personal Weather Stations






























Interactive Weather Map New forecast layout! Learn more

10-Day Weather Forecast

Advertisements
Track Severe Weather on mobile